createdAt,value
2022-11-29T00:01:01.899Z,5.83
2022-11-29T00:03:29.128Z,5.90
2022-11-29T00:05:56.119Z,5.45
2022-11-29T00:08:24.183Z,5.88
2022-11-29T00:10:50.647Z,5.48
2022-11-29T00:13:17.664Z,5.69
2022-11-29T00:15:44.145Z,5.86
2022-11-29T00:18:10.616Z,5.27
2022-11-29T00:20:39.300Z,5.81
2022-11-29T00:23:06.303Z,5.79
2022-11-29T00:25:32.992Z,5.85
2022-11-29T00:27:59.802Z,5.37
2022-11-29T00:30:26.312Z,5.73
2022-11-29T00:32:52.816Z,5.88
2022-11-29T00:35:19.325Z,5.81
2022-11-29T00:37:45.792Z,5.68
2022-11-29T00:40:12.874Z,5.68
2022-11-29T00:42:39.327Z,5.37
2022-11-29T00:45:06.321Z,5.79
2022-11-29T00:47:32.744Z,5.85
2022-11-29T00:49:59.173Z,5.84
2022-11-29T00:52:25.879Z,5.75
2022-11-29T00:54:52.341Z,5.77
2022-11-29T00:57:18.746Z,5.75
2022-11-29T00:59:45.154Z,5.90
2022-11-29T01:02:11.705Z,5.76
2022-11-29T01:04:38.250Z,5.84
2022-11-29T01:07:04.787Z,5.60
2022-11-29T01:09:31.273Z,5.72
2022-11-29T01:11:57.724Z,5.73
2022-11-29T01:14:24.231Z,5.77
2022-11-29T01:16:50.815Z,5.69
2022-11-29T01:19:17.312Z,5.77
2022-11-29T01:21:43.729Z,5.76
2022-11-29T01:24:10.267Z,5.32
2022-11-29T01:26:36.718Z,5.91
2022-11-29T01:29:03.380Z,5.93
2022-11-29T01:31:33.685Z,5.63
2022-11-29T01:34:02.504Z,5.92
2022-11-29T01:36:29.853Z,5.43
2022-11-29T01:38:59.494Z,5.58
2022-11-29T01:41:28.798Z,5.70
2022-11-29T01:44:01.426Z,5.69
2022-11-29T01:46:33.934Z,5.61
2022-11-29T01:49:07.489Z,5.85
2022-11-29T01:51:36.063Z,5.76
2022-11-29T01:54:02.826Z,5.54
2022-11-29T01:56:30.581Z,5.85
2022-11-29T01:58:57.292Z,5.83
2022-11-29T02:01:26.026Z,5.64
2022-11-29T02:03:53.544Z,5.20
2022-11-29T02:06:20.163Z,5.64
2022-11-29T02:08:46.774Z,5.69
2022-11-29T02:11:52.191Z,5.68
2022-11-29T02:14:46.333Z,5.64
2022-11-29T02:17:20.253Z,5.58
2022-11-29T02:20:11.460Z,5.59
2022-11-29T02:22:54.311Z,5.68
2022-11-29T02:25:36.066Z,5.64
2022-11-29T02:28:30.213Z,5.64
2022-11-29T02:31:14.833Z,5.60
2022-11-29T02:34:12.131Z,5.54
2022-11-29T02:36:47.619Z,5.49
2022-11-29T02:39:42.806Z,5.46
2022-11-29T02:42:56.622Z,4.70
2022-11-29T02:45:44.877Z,5.56
2022-11-29T02:48:41.356Z,5.61
2022-11-29T02:51:19.872Z,5.63
2022-11-29T02:54:21.716Z,5.64
2022-11-29T02:57:18.454Z,5.58
2022-11-29T02:59:52.979Z,5.59
2022-11-29T03:02:27.191Z,5.55
2022-11-29T03:05:03.483Z,5.29
2022-11-29T03:07:57.914Z,5.69
2022-11-29T03:10:49.917Z,5.46
2022-11-29T03:13:28.150Z,5.43
2022-11-29T03:16:23.546Z,5.37
2022-11-29T03:18:57.190Z,5.69
2022-11-29T03:21:39.591Z,5.61
2022-11-29T03:24:13.641Z,5.24
2022-11-29T03:26:47.859Z,5.13
2022-11-29T03:29:23.183Z,5.61
2022-11-29T03:32:00.232Z,5.07
2022-11-29T03:35:04.030Z,5.70
2022-11-29T03:37:45.670Z,5.72
2022-11-29T03:40:21.338Z,5.71
2022-11-29T03:42:51.508Z,5.62
2022-11-29T03:45:21.611Z,5.31
2022-11-29T03:48:04.780Z,5.64
2022-11-29T03:50:54.785Z,5.34
2022-11-29T03:53:50.038Z,5.32
2022-11-29T03:56:28.754Z,5.59
2022-11-29T03:59:27.444Z,5.66
2022-11-29T04:02:19.711Z,5.33
2022-11-29T04:05:07.890Z,5.74
2022-11-29T04:07:37.277Z,5.72
2022-11-29T04:10:03.694Z,5.72
2022-11-29T04:13:16.263Z,5.76
2022-11-29T04:15:54.980Z,5.81
2022-11-29T04:18:58.981Z,5.76
2022-11-29T04:21:51.766Z,5.78
2022-11-29T04:24:39.957Z,5.74
2022-11-29T04:27:49.371Z,5.64
2022-11-29T04:30:26.073Z,5.69
2022-11-29T04:33:25.550Z,5.59
2022-11-29T04:36:01.376Z,5.79
2022-11-29T04:38:52.909Z,5.65
2022-11-29T04:41:41.417Z,5.65
2022-11-29T04:44:16.455Z,5.69
2022-11-29T04:46:48.723Z,5.65
2022-11-29T04:49:46.245Z,5.68
2022-11-29T04:52:30.253Z,5.75
2022-11-29T04:55:27.805Z,5.56
2022-11-29T04:58:20.905Z,5.70
2022-11-29T05:01:31.944Z,5.71
2022-11-29T05:04:13.746Z,4.54
2022-11-29T05:07:02.250Z,5.67
2022-11-29T05:09:34.818Z,5.63
2022-11-29T05:12:29.322Z,5.66
2022-11-29T05:15:25.509Z,5.68
2022-11-29T05:18:48.741Z,5.55
2022-11-29T05:21:44.214Z,5.42
2022-11-29T05:24:22.552Z,5.66
2022-11-29T05:26:57.939Z,5.63
2022-11-29T05:29:36.099Z,5.57
2022-11-29T05:32:28.744Z,5.66
2022-11-29T05:35:04.449Z,5.77
2022-11-29T05:37:33.842Z,5.66
2022-11-29T05:40:25.410Z,5.77
2022-11-29T05:43:06.796Z,5.76
2022-11-29T05:45:51.941Z,5.59
2022-11-29T05:48:27.645Z,4.80
2022-11-29T05:51:29.522Z,4.93
2022-11-29T05:54:21.501Z,5.67
2022-11-29T05:57:14.380Z,5.64
2022-11-29T05:59:43.168Z,5.62
2022-11-29T06:02:28.339Z,5.69
2022-11-29T06:05:17.577Z,5.72
2022-11-29T06:07:56.281Z,5.76
2022-11-29T06:10:32.866Z,5.52
2022-11-29T06:13:19.089Z,5.46
2022-11-29T06:16:08.083Z,5.67
2022-11-29T06:18:55.663Z,5.60
2022-11-29T06:21:45.980Z,5.59
2022-11-29T06:24:26.235Z,5.60
2022-11-29T06:27:10.801Z,5.38
2022-11-29T06:29:56.590Z,5.49
2022-11-29T06:32:47.733Z,5.54
2022-11-29T06:35:47.807Z,5.61
2022-11-29T06:38:30.888Z,5.55
2022-11-29T06:41:02.130Z,5.60
2022-11-29T06:43:29.545Z,5.56
2022-11-29T06:46:12.722Z,5.63
2022-11-29T06:48:45.722Z,5.46
2022-11-29T06:51:25.085Z,5.60
2022-11-29T06:54:28.903Z,5.64
2022-11-29T06:57:24.723Z,5.60
2022-11-29T07:00:11.713Z,5.44
2022-11-29T07:02:52.105Z,5.57
2022-11-29T07:05:29.705Z,5.21
2022-11-29T07:08:03.049Z,5.03
2022-11-29T07:10:33.264Z,5.37
2022-11-29T07:13:00.020Z,5.50
2022-11-29T07:15:28.240Z,5.04
2022-11-29T07:18:39.470Z,5.54
2022-11-29T07:21:21.343Z,5.48
2022-11-29T07:24:16.112Z,5.54
2022-11-29T07:27:08.642Z,5.60
2022-11-29T07:29:35.089Z,5.66
2022-11-29T07:32:07.321Z,5.56
2022-11-29T07:34:45.381Z,5.59
2022-11-29T07:37:30.247Z,5.51
2022-11-29T07:40:06.873Z,5.45
2022-11-29T07:42:47.445Z,5.22
2022-11-29T07:45:32.741Z,5.59
2022-11-29T07:47:59.663Z,5.63
2022-11-29T07:50:27.415Z,5.72
2022-11-29T07:52:55.641Z,5.32
2022-11-29T07:55:24.793Z,5.69
2022-11-29T07:57:52.383Z,5.72
2022-11-29T08:00:20.003Z,5.77
2022-11-29T08:02:47.574Z,5.73
2022-11-29T08:05:14.043Z,5.38
2022-11-29T08:07:41.412Z,5.75
2022-11-29T08:10:12.465Z,5.68
2022-11-29T08:12:47.589Z,5.86
2022-11-29T08:15:15.057Z,5.58
2022-11-29T08:17:41.575Z,5.90
2022-11-29T08:20:09.585Z,5.69
2022-11-29T08:22:36.228Z,5.58
2022-11-29T08:25:02.968Z,5.88
2022-11-29T08:27:29.547Z,5.53
2022-11-29T08:29:56.029Z,5.85
2022-11-29T08:32:22.550Z,5.86
2022-11-29T08:34:49.159Z,5.88
2022-11-29T08:37:15.628Z,6.01
2022-11-29T08:39:42.034Z,5.95
2022-11-29T08:42:08.501Z,6.00
2022-11-29T08:44:35.009Z,5.81
2022-11-29T08:47:20.080Z,6.09
2022-11-29T08:50:01.465Z,5.89
2022-11-29T08:52:51.630Z,6.16
2022-11-29T08:55:20.807Z,6.18
2022-11-29T08:57:48.581Z,6.15
2022-11-29T09:00:16.337Z,5.96
2022-11-29T09:02:43.129Z,5.90
2022-11-29T09:05:11.174Z,5.93
2022-11-29T09:07:38.016Z,5.90
2022-11-29T09:10:08.225Z,6.03
2022-11-29T09:12:39.609Z,6.08
2022-11-29T09:15:11.307Z,6.11
2022-11-29T09:17:37.797Z,6.20
2022-11-29T09:20:05.858Z,6.11
2022-11-29T09:22:32.427Z,6.07
2022-11-29T09:24:58.878Z,6.12
2022-11-29T09:27:25.340Z,6.15
2022-11-29T09:29:51.895Z,6.08
2022-11-29T09:32:18.386Z,6.13
2022-11-29T09:34:45.107Z,6.24
2022-11-29T09:37:11.861Z,6.15
2022-11-29T09:39:40.249Z,5.52
2022-11-29T09:42:44.488Z,6.25
2022-11-29T09:45:18.572Z,6.24
2022-11-29T09:48:17.358Z,6.30
2022-11-29T09:50:51.041Z,6.31
2022-11-29T09:53:36.310Z,6.32
2022-11-29T09:56:18.169Z,5.94
2022-11-29T09:58:53.434Z,6.34
2022-11-29T10:01:25.821Z,6.14
2022-11-29T10:03:57.382Z,6.08
2022-11-29T10:06:28.214Z,6.38
2022-11-29T10:09:02.232Z,5.97
2022-11-29T10:11:55.517Z,6.53
2022-11-29T10:14:26.866Z,6.40
2022-11-29T10:17:04.438Z,6.53
2022-11-29T10:19:35.103Z,6.37
2022-11-29T10:22:29.086Z,6.19
2022-11-29T10:25:00.896Z,6.58
2022-11-29T10:27:29.644Z,6.49
2022-11-29T10:29:59.252Z,6.58
2022-11-29T10:32:28.042Z,6.25
2022-11-29T10:34:57.525Z,6.38
2022-11-29T10:37:24.619Z,6.18
2022-11-29T10:39:58.750Z,6.12
2022-11-29T10:42:47.366Z,6.60
2022-11-29T10:45:22.825Z,6.64
2022-11-29T10:47:51.162Z,6.58
2022-11-29T10:50:23.002Z,6.63
2022-11-29T10:52:49.480Z,6.63
2022-11-29T10:55:17.069Z,6.67
2022-11-29T10:58:28.340Z,6.80
2022-11-29T11:01:02.305Z,6.74
2022-11-29T11:03:34.996Z,6.81
2022-11-29T11:06:08.104Z,6.41
2022-11-29T11:08:35.987Z,6.84
2022-11-29T11:11:04.817Z,6.37
2022-11-29T11:13:32.679Z,6.81
2022-11-29T11:16:08.909Z,6.79
2022-11-29T11:18:37.446Z,6.69
2022-11-29T11:21:07.587Z,6.87
2022-11-29T11:23:42.398Z,6.92
2022-11-29T11:26:13.335Z,6.90
2022-11-29T11:29:01.227Z,6.52
2022-11-29T11:31:31.925Z,6.84
2022-11-29T11:34:23.649Z,6.84
2022-11-29T11:36:50.342Z,6.76
2022-11-29T11:39:22.590Z,6.81
2022-11-29T11:42:10.726Z,6.90
2022-11-29T11:44:47.508Z,6.51
2022-11-29T11:47:24.467Z,6.71
2022-11-29T11:49:55.922Z,6.82
2022-11-29T11:52:25.611Z,6.72
2022-11-29T11:54:57.693Z,6.74
2022-11-29T11:57:26.234Z,6.88
2022-11-29T12:00:05.032Z,6.90
2022-11-29T12:02:37.986Z,6.86
2022-11-29T12:05:17.050Z,6.70
2022-11-29T12:10:40.481Z,6.50
2022-11-29T12:13:20.378Z,6.88
2022-11-29T12:15:49.997Z,6.93
2022-11-29T12:18:28.040Z,6.94
2022-11-29T12:21:00.446Z,6.90
2022-11-29T12:23:39.473Z,6.84
2022-11-29T12:26:13.649Z,6.91
2022-11-29T12:28:46.790Z,6.82
2022-11-29T12:31:16.408Z,6.97
2022-11-29T12:33:48.881Z,6.93
2022-11-29T12:36:56.552Z,6.47
2022-11-29T12:39:52.532Z,6.90
2022-11-29T12:42:22.346Z,7.08
2022-11-29T12:45:19.510Z,6.62
2022-11-29T12:48:18.470Z,6.79
2022-11-29T12:51:22.246Z,7.00
2022-11-29T12:53:57.862Z,6.96
2022-11-29T12:56:33.566Z,7.01
2022-11-29T12:59:06.188Z,7.02
2022-11-29T13:01:41.762Z,7.08
2022-11-29T13:04:26.635Z,7.08
2022-11-29T13:07:22.217Z,7.02
2022-11-29T13:10:23.865Z,7.09
2022-11-29T13:13:21.152Z,7.02
2022-11-29T13:16:07.497Z,7.05
2022-11-29T13:18:38.776Z,6.97
2022-11-29T13:21:13.959Z,7.02
2022-11-29T13:24:18.183Z,6.98
2022-11-29T13:26:45.227Z,7.01
2022-11-29T13:29:16.407Z,6.97
2022-11-29T13:31:44.308Z,6.35
2022-11-29T13:34:31.798Z,6.83
2022-11-29T13:37:03.965Z,6.84
2022-11-29T13:39:30.396Z,6.83
2022-11-29T13:42:15.473Z,6.85
2022-11-29T13:45:00.713Z,6.86
2022-11-29T13:47:27.263Z,6.60
2022-11-29T13:50:03.618Z,6.46
2022-11-29T13:52:43.592Z,6.75
2022-11-29T13:55:13.073Z,6.79
2022-11-29T14:00:44.303Z,6.76
2022-11-29T14:03:33.669Z,6.78
2022-11-29T14:06:11.026Z,6.30
2022-11-29T14:09:10.880Z,6.27
2022-11-29T14:11:38.021Z,6.74
2022-11-29T14:14:20.813Z,6.70
2022-11-29T14:16:50.888Z,6.78
2022-11-29T14:19:34.331Z,6.64
2022-11-29T14:22:06.840Z,6.70
2022-11-29T14:24:36.186Z,6.66
2022-11-29T14:27:05.704Z,6.61
2022-11-29T14:29:47.518Z,6.59
2022-11-29T14:32:49.467Z,6.62
2022-11-29T14:35:27.009Z,6.57
2022-11-29T14:38:15.969Z,6.50
2022-11-29T14:40:42.428Z,6.51
2022-11-29T14:43:37.972Z,6.54
2022-11-29T14:46:16.768Z,6.53
2022-11-29T14:48:57.326Z,6.52
2022-11-29T14:51:26.395Z,6.48
2022-11-29T14:54:19.905Z,6.55
2022-11-29T14:56:47.447Z,6.38
2022-11-29T14:59:42.578Z,6.36
2022-11-29T15:02:27.470Z,5.86
2022-11-29T15:04:57.231Z,6.33
2022-11-29T15:07:32.379Z,6.20
2022-11-29T15:10:04.854Z,5.87
2022-11-29T15:12:38.108Z,6.32
2022-11-29T15:15:27.849Z,6.47
2022-11-29T15:18:18.218Z,6.27
2022-11-29T15:21:03.537Z,6.54
2022-11-29T15:23:40.510Z,6.47
2022-11-29T15:26:16.127Z,6.38
2022-11-29T15:28:43.296Z,6.44
2022-11-29T15:31:13.231Z,6.39
2022-11-29T15:33:43.223Z,6.41
2022-11-29T15:36:09.705Z,6.38
2022-11-29T15:38:47.197Z,6.33
2022-11-29T15:41:34.401Z,5.98
2022-11-29T15:44:05.769Z,6.20
2022-11-29T15:46:34.759Z,6.38
2022-11-29T15:49:24.301Z,6.39
2022-11-29T15:52:06.062Z,6.33
2022-11-29T15:54:42.199Z,6.28
2022-11-29T15:57:17.852Z,6.38
2022-11-29T15:59:51.592Z,6.32
2022-11-29T16:02:33.314Z,6.39
2022-11-29T16:05:14.592Z,6.44
2022-11-29T16:07:41.928Z,6.24
2022-11-29T16:10:23.297Z,5.96
2022-11-29T16:12:55.103Z,6.45
2022-11-29T16:15:27.900Z,6.41
2022-11-29T16:17:54.570Z,6.25
2022-11-29T16:20:25.480Z,6.51
2022-11-29T16:23:13.150Z,6.08
2022-11-29T16:25:53.727Z,6.51
2022-11-29T16:28:20.361Z,6.36
2022-11-29T16:30:47.026Z,6.38
2022-11-29T16:33:23.781Z,6.38
2022-11-29T16:35:51.910Z,6.37
2022-11-29T16:38:21.839Z,6.38
2022-11-29T16:41:20.942Z,6.31
2022-11-29T16:43:55.568Z,6.21
2022-11-29T16:46:22.066Z,6.29
2022-11-29T16:48:57.144Z,6.18
2022-11-29T16:51:24.981Z,6.33
2022-11-29T16:53:53.415Z,6.31
2022-11-29T16:56:25.654Z,5.86
2022-11-29T16:59:24.777Z,5.95
2022-11-29T17:01:49.637Z,6.23
2022-11-29T17:04:23.250Z,6.31
2022-11-29T17:06:52.323Z,5.83
2022-11-29T17:09:25.708Z,6.32
2022-11-29T17:11:52.968Z,6.08
2022-11-29T17:14:19.375Z,6.32
2022-11-29T17:16:49.268Z,6.31
2022-11-29T17:19:16.625Z,6.27
2022-11-29T17:21:43.536Z,5.87
2022-11-29T17:24:13.606Z,5.86
2022-11-29T17:26:40.995Z,6.16
2022-11-29T17:29:09.416Z,5.86
2022-11-29T17:31:36.197Z,6.19
2022-11-29T17:34:02.969Z,6.21
2022-11-29T17:36:30.584Z,6.25
2022-11-29T17:38:59.314Z,6.13
2022-11-29T17:41:27.822Z,6.24
2022-11-29T17:43:56.032Z,6.31
2022-11-29T17:46:26.187Z,6.00
2022-11-29T17:48:53.407Z,5.92
2022-11-29T17:51:50.477Z,5.99
2022-11-29T17:54:09.443Z,6.23
2022-11-29T17:56:36.058Z,6.23
2022-11-29T17:59:04.102Z,6.06
2022-11-29T18:01:35.747Z,6.30
2022-11-29T18:04:05.799Z,5.85
2022-11-29T18:06:37.987Z,5.59
2022-11-29T18:09:06.301Z,6.02
2022-11-29T18:11:44.945Z,6.00
2022-11-29T18:14:19.537Z,6.15
2022-11-29T18:16:46.173Z,6.14
2022-11-29T18:19:16.123Z,6.13
2022-11-29T18:21:43.067Z,6.14
2022-11-29T18:24:10.329Z,6.06
2022-11-29T18:26:37.434Z,5.95
2022-11-29T18:29:05.506Z,5.75
2022-11-29T18:31:34.495Z,6.18
2022-11-29T18:34:03.411Z,5.92
2022-11-29T18:36:32.675Z,6.00
2022-11-29T18:39:19.303Z,6.02
2022-11-29T18:41:48.228Z,5.63
2022-11-29T18:44:16.801Z,6.16
2022-11-29T18:46:44.638Z,6.15
2022-11-29T18:49:13.625Z,6.22
2022-11-29T18:51:42.941Z,6.11
2022-11-29T18:54:09.472Z,6.16
2022-11-29T18:56:37.207Z,5.76
2022-11-29T18:59:17.142Z,6.05
2022-11-29T19:01:45.908Z,5.58
2022-11-29T19:04:15.361Z,6.07
2022-11-29T19:06:42.977Z,6.22
2022-11-29T19:09:18.137Z,6.30
2022-11-29T19:11:44.612Z,6.32
2022-11-29T19:14:12.758Z,6.17
2022-11-29T19:16:42.461Z,6.15
2022-11-29T19:19:09.484Z,6.13
2022-11-29T19:21:36.179Z,6.22
2022-11-29T19:24:05.461Z,6.15
2022-11-29T19:26:32.584Z,6.05
2022-11-29T19:29:01.156Z,5.90
2022-11-29T19:31:28.611Z,6.12
2022-11-29T19:33:56.557Z,5.88
2022-11-29T19:36:27.481Z,6.07
2022-11-29T19:38:54.717Z,5.94
2022-11-29T19:41:27.359Z,6.19
2022-11-29T19:43:56.473Z,5.91
2022-11-29T19:46:25.756Z,6.09
2022-11-29T19:48:55.531Z,6.19
2022-11-29T19:51:23.342Z,6.13
2022-11-29T19:53:54.195Z,6.14
2022-11-29T19:56:21.838Z,6.08
2022-11-29T19:58:49.035Z,6.04
2022-11-29T20:01:19.489Z,6.25
2022-11-29T20:03:46.173Z,5.95
2022-11-29T20:06:13.719Z,5.99
2022-11-29T20:08:41.519Z,5.99
2022-11-29T20:11:14.088Z,6.05
2022-11-29T20:13:42.334Z,6.10
2022-11-29T20:16:11.443Z,6.19
2022-11-29T20:18:41.808Z,6.14
2022-11-29T20:21:13.629Z,6.17
2022-11-29T20:23:41.485Z,6.20
2022-11-29T20:26:13.712Z,5.79
2022-11-29T20:28:40.201Z,5.83
2022-11-29T20:31:08.453Z,6.34
2022-11-29T20:33:35.387Z,6.34
2022-11-29T20:36:39.456Z,6.27
2022-11-29T20:39:23.695Z,6.09
2022-11-29T20:41:53.273Z,6.10
2022-11-29T20:44:24.214Z,6.14
2022-11-29T20:46:50.856Z,5.75
2022-11-29T20:49:18.272Z,6.14
2022-11-29T20:51:56.422Z,6.01
2022-11-29T20:54:22.947Z,5.66
2022-11-29T20:56:49.399Z,6.14
2022-11-29T20:59:15.856Z,5.33
2022-11-29T21:01:42.399Z,5.36
2022-11-29T21:04:08.894Z,5.92
2022-11-29T21:06:38.984Z,6.20
2022-11-29T21:09:05.818Z,5.59
2022-11-29T21:11:32.704Z,6.17
2022-11-29T21:14:03.539Z,5.34
2022-11-29T21:16:31.804Z,6.14
2022-11-29T21:19:01.986Z,5.92
2022-11-29T21:21:35.113Z,6.00
2022-11-29T21:24:08.370Z,6.07
2022-11-29T21:26:42.240Z,6.16
2022-11-29T21:29:19.436Z,6.14
2022-11-29T21:31:47.253Z,6.20
2022-11-29T21:34:13.942Z,6.11
2022-11-29T21:36:40.824Z,6.14
2022-11-29T21:39:11.010Z,6.13
2022-11-29T21:41:37.461Z,5.99
2022-11-29T21:44:07.171Z,6.13
2022-11-29T21:46:34.309Z,6.16
2022-11-29T21:49:00.810Z,6.21
2022-11-29T21:51:27.313Z,6.02
2022-11-29T21:53:53.737Z,6.11
2022-11-29T21:56:20.258Z,6.00
2022-11-29T21:58:46.664Z,6.13
2022-11-29T22:01:18.614Z,6.18
2022-11-29T22:03:45.709Z,6.22
2022-11-29T22:06:24.375Z,6.19
2022-11-29T22:08:50.903Z,6.19
2022-11-29T22:11:31.251Z,6.20
2022-11-29T22:14:14.597Z,5.90
2022-11-29T22:16:53.535Z,6.22
2022-11-29T22:19:22.994Z,6.14
2022-11-29T22:21:52.154Z,6.19
2022-11-29T22:24:21.075Z,6.14
2022-11-29T22:26:48.701Z,6.12
2022-11-29T22:29:15.671Z,6.10
2022-11-29T22:31:48.034Z,6.02
2022-11-29T22:34:14.797Z,6.17
2022-11-29T22:36:41.653Z,6.18
2022-11-29T22:39:09.292Z,6.00
2022-11-29T22:41:39.038Z,6.03
2022-11-29T22:44:06.283Z,5.91
2022-11-29T22:46:35.478Z,6.17
2022-11-29T22:49:03.210Z,6.11
2022-11-29T22:51:32.407Z,6.19
2022-11-29T22:54:01.245Z,5.93
2022-11-29T22:56:31.208Z,6.14
2022-11-29T22:58:58.058Z,6.18
2022-11-29T23:01:27.754Z,6.21
2022-11-29T23:03:56.414Z,6.13
2022-11-29T23:06:24.593Z,6.27
2022-11-29T23:08:52.620Z,6.25
2022-11-29T23:11:21.946Z,5.92
2022-11-29T23:13:48.479Z,6.22
2022-11-29T23:16:17.617Z,5.83
2022-11-29T23:18:45.757Z,6.16
2022-11-29T23:21:20.790Z,6.14
2022-11-29T23:23:52.921Z,6.11
2022-11-29T23:26:46.397Z,6.13
2022-11-29T23:29:18.126Z,6.08
2022-11-29T23:31:44.758Z,5.66
2022-11-29T23:34:12.855Z,5.99
2022-11-29T23:36:39.377Z,5.97
2022-11-29T23:39:06.719Z,6.13
2022-11-29T23:41:34.407Z,6.03
2022-11-29T23:44:03.523Z,5.94
2022-11-29T23:46:30.034Z,6.13
2022-11-29T23:48:56.539Z,5.98
2022-11-29T23:51:23.013Z,5.58
2022-11-29T23:53:53.663Z,6.19
2022-11-29T23:56:21.614Z,6.15
2022-11-29T23:58:48.407Z,5.87
